createdAt,value
2023-04-15T00:01:02.649Z,26463.19
2023-04-15T00:03:29.865Z,26267.75
2023-04-15T00:05:56.572Z,26300.00
2023-04-15T00:08:22.999Z,26263.75
2023-04-15T00:10:49.535Z,26124.72
2023-04-15T00:13:16.630Z,26287.91
2023-04-15T00:15:43.422Z,26295.97
2023-04-15T00:18:10.014Z,26275.81
2023-04-15T00:20:37.266Z,26293.97
2023-04-15T00:23:04.201Z,26485.34
2023-04-15T00:25:31.643Z,26582.06
2023-04-15T00:27:58.800Z,27424.31
2023-04-15T00:30:26.613Z,27494.88
2023-04-15T00:32:53.543Z,27599.66
2023-04-15T00:35:20.852Z,27658.09
2023-04-15T00:37:47.518Z,27758.88
2023-04-15T00:40:17.849Z,27978.56
2023-04-15T00:42:47.223Z,28016.84
2023-04-15T00:45:14.200Z,27936.22
2023-04-15T00:47:43.018Z,28053.13
2023-04-15T00:50:10.963Z,28093.44
2023-04-15T00:52:37.726Z,27529.13
2023-04-15T00:55:05.398Z,27696.38
2023-04-15T00:57:32.368Z,27238.94
2023-04-15T00:59:59.269Z,27122.06
2023-04-15T01:02:25.987Z,26549.81
2023-04-15T01:04:52.705Z,26259.72
2023-04-15T01:07:23.474Z,25703.72
2023-04-15T01:10:04.913Z,25220.31
2023-04-15T01:12:33.205Z,23921.44
2023-04-15T01:15:01.116Z,23238.94
2023-04-15T01:17:28.543Z,21785.78
2023-04-15T01:19:59.825Z,21745.56
2023-04-15T01:22:28.795Z,20715.41
2023-04-15T01:25:19.587Z,19942.97
2023-04-15T01:27:48.281Z,19170.69
2023-04-15T01:30:17.275Z,18398.53
2023-04-15T01:32:44.766Z,17883.88
2023-04-15T01:35:19.973Z,17626.56
2023-04-15T01:37:47.313Z,17112.00
2023-04-15T01:40:13.985Z,16854.75
2023-04-15T01:42:40.414Z,16083.06
2023-04-15T01:45:10.505Z,15825.88
2023-04-15T01:50:21.728Z,14797.31
2023-04-15T01:52:48.712Z,14283.09
2023-04-15T01:55:22.530Z,13254.94
2023-04-15T01:58:03.695Z,12483.97
2023-04-15T02:00:30.750Z,12227.03
2023-04-15T02:03:10.369Z,11456.28
2023-04-15T02:05:36.995Z,11199.38
2023-04-15T02:08:03.928Z,10685.69
2023-04-15T02:10:30.589Z,10172.03
2023-04-15T02:12:57.421Z,9658.44
2023-04-15T02:15:23.832Z,9658.44
2023-04-15T02:17:52.720Z,9144.94
2023-04-15T02:20:22.418Z,9658.44
2023-04-15T02:22:49.568Z,9144.94
2023-04-15T02:25:20.302Z,8631.50
2023-04-15T02:27:46.866Z,8631.50
2023-04-15T02:30:13.615Z,8118.13
2023-04-15T02:32:40.848Z,8118.13
2023-04-15T02:35:08.945Z,7604.81
2023-04-15T02:37:40.769Z,7091.56
2023-04-15T02:40:10.339Z,7604.81
2023-04-15T02:42:36.923Z,7091.56
2023-04-15T02:45:03.574Z,6578.41
2023-04-15T02:47:30.160Z,6321.84
2023-04-15T02:49:58.619Z,6065.31
2023-04-15T02:52:25.318Z,5295.78
2023-04-15T02:54:52.011Z,5039.31
2023-04-15T02:57:18.511Z,4782.84
2023-04-15T02:59:44.977Z,4782.84
2023-04-15T03:02:11.622Z,4526.41
2023-04-15T03:04:38.193Z,4782.84
2023-04-15T03:07:04.748Z,4782.84
2023-04-15T03:09:31.257Z,4526.41
2023-04-15T03:11:57.813Z,4526.41
2023-04-15T03:14:24.402Z,4013.56
2023-04-15T03:16:51.979Z,3757.19
2023-04-15T03:19:18.432Z,4013.56
2023-04-15T03:21:44.924Z,4013.56
2023-04-15T03:24:11.528Z,3500.81
2023-04-15T03:26:38.013Z,3500.81
2023-04-15T03:29:04.612Z,2988.13
2023-04-15T03:31:31.229Z,2988.13
2023-04-15T03:33:57.714Z,2988.13
2023-04-15T03:36:24.333Z,2988.13
2023-04-15T03:38:50.834Z,2475.50
2023-04-15T03:41:17.487Z,2219.22
2023-04-15T03:43:43.953Z,1962.94
2023-04-15T03:46:10.704Z,1962.94
2023-04-15T03:48:37.211Z,1706.69
2023-04-15T03:51:03.785Z,1450.44
2023-04-15T03:53:30.375Z,1450.44
2023-04-15T03:55:56.919Z,681.84
2023-04-15T03:58:23.494Z,681.84
2023-04-15T04:00:49.964Z,938.03
2023-04-15T04:03:16.806Z,681.84
2023-04-15T04:05:44.455Z,169.53
2023-04-15T04:08:13.825Z,169.53
2023-04-15T04:10:40.413Z,-86.59
2023-04-15T04:13:07.086Z,-86.59
2023-04-15T04:15:34.077Z,-598.81
2023-04-15T04:18:00.921Z,-598.81
2023-04-15T04:20:27.432Z,-854.91
2023-04-15T04:22:54.008Z,-854.91
2023-04-15T04:25:20.540Z,-1110.97
2023-04-15T04:27:47.167Z,-1110.97
2023-04-15T04:30:13.678Z,-1623.06
2023-04-15T04:32:40.134Z,-1367.03
2023-04-15T04:35:07.285Z,-1367.03
2023-04-15T04:37:33.745Z,-1623.06
2023-04-15T04:40:00.366Z,-1623.06
2023-04-15T04:42:26.917Z,-1879.06
2023-04-15T04:44:59.471Z,-2135.06
2023-04-15T04:47:37.451Z,-2135.06
2023-04-15T04:50:04.241Z,-2135.06
2023-04-15T04:52:30.731Z,-2135.06
2023-04-15T04:54:57.131Z,-2135.06
2023-04-15T04:57:23.540Z,-1623.06
2023-04-15T04:59:52.532Z,-1879.06
2023-04-15T05:02:21.538Z,-1879.06
2023-04-15T05:04:54.309Z,-1879.06
2023-04-15T05:07:21.394Z,-1623.06
2023-04-15T05:09:48.253Z,-1623.06
2023-04-15T05:12:15.238Z,-1879.06
2023-04-15T05:14:42.321Z,-1879.06
2023-04-15T05:17:09.082Z,-1623.06
2023-04-15T05:19:35.690Z,-1367.03
2023-04-15T05:22:02.186Z,-1367.03
2023-04-15T05:24:28.851Z,-1110.97
2023-04-15T05:26:56.186Z,-1367.03
2023-04-15T05:29:22.649Z,-1623.06
2023-04-15T05:31:50.130Z,-1623.06
2023-04-15T05:34:17.773Z,-1110.97
2023-04-15T05:36:44.097Z,-1367.03
2023-04-15T05:39:10.521Z,-1110.97
2023-04-15T05:41:38.052Z,-1110.97
2023-04-15T05:44:04.486Z,-1367.03
2023-04-15T05:46:30.996Z,-1110.97
2023-04-15T05:48:57.427Z,-854.91
2023-04-15T05:51:27.441Z,-1110.97
2023-04-15T05:53:53.883Z,-1110.97
2023-04-15T05:56:22.509Z,-598.81
2023-04-15T05:58:52.439Z,-598.81
2023-04-15T06:01:20.714Z,-1110.97
2023-04-15T06:03:47.452Z,-1110.97
2023-04-15T06:06:14.372Z,-1110.97
2023-04-15T06:08:41.118Z,-598.81
2023-04-15T06:11:09.504Z,-598.81
2023-04-15T06:13:36.011Z,-598.81
2023-04-15T06:16:04.847Z,-86.59
2023-04-15T06:18:31.261Z,-86.59
2023-04-15T06:20:58.028Z,169.53
2023-04-15T06:23:26.322Z,425.69
2023-04-15T06:25:56.609Z,938.03
2023-04-15T06:28:23.040Z,1194.22
2023-04-15T06:30:49.502Z,1706.69
2023-04-15T06:33:16.035Z,1962.94
2023-04-15T06:35:52.953Z,2475.50
2023-04-15T06:38:19.723Z,3244.47
2023-04-15T06:40:46.308Z,3757.19
2023-04-15T06:43:12.919Z,4526.41
2023-04-15T06:45:39.842Z,4782.84
2023-04-15T06:48:08.246Z,5295.78
2023-04-15T06:50:35.712Z,5295.78
2023-04-15T06:53:02.188Z,6321.84
2023-04-15T06:55:28.836Z,6578.41
2023-04-15T06:57:56.955Z,7348.19
2023-04-15T07:00:23.435Z,7348.19
2023-04-15T07:02:52.839Z,7348.19
2023-04-15T07:05:20.170Z,7604.81
2023-04-15T07:07:46.915Z,8118.13
2023-04-15T07:10:15.088Z,8374.81
2023-04-15T07:12:41.854Z,8374.81
2023-04-15T07:15:08.607Z,8631.50
2023-04-15T07:17:37.298Z,9144.94
2023-04-15T07:20:05.033Z,10172.03
2023-04-15T07:22:31.923Z,10172.03
2023-04-15T07:24:58.358Z,9915.22
2023-04-15T07:27:25.831Z,11199.38
2023-04-15T07:29:53.172Z,10942.53
2023-04-15T07:32:20.876Z,11456.28
2023-04-15T07:34:47.440Z,11970.09
2023-04-15T07:37:15.010Z,12227.03
2023-04-15T07:39:41.787Z,13511.94
2023-04-15T07:42:10.411Z,12740.94
2023-04-15T07:44:37.029Z,12740.94
2023-04-15T07:47:05.452Z,14026.03
2023-04-15T07:49:32.222Z,15311.56
2023-04-15T07:52:02.926Z,16340.28
2023-04-15T07:54:29.837Z,16597.50
2023-04-15T07:56:57.359Z,16083.06
2023-04-15T07:59:23.747Z,16083.06
2023-04-15T08:01:56.766Z,16083.06
2023-04-15T08:04:29.197Z,17626.56
2023-04-15T08:06:55.775Z,15825.88
2023-04-15T08:09:23.265Z,16340.28
2023-04-15T08:11:51.236Z,15825.88
2023-04-15T08:14:17.884Z,14797.31
2023-04-15T08:16:44.859Z,14283.09
2023-04-15T08:19:11.367Z,14026.03
2023-04-15T08:21:37.926Z,15054.41
2023-04-15T08:24:06.920Z,16854.75
2023-04-15T08:26:33.449Z,16854.75
2023-04-15T08:29:00.209Z,16083.06
2023-04-15T08:31:27.789Z,15825.88
2023-04-15T08:33:57.630Z,16597.50
2023-04-15T08:36:25.149Z,19170.69
2023-04-15T08:38:51.992Z,18655.91
2023-04-15T08:41:23.705Z,18913.28
2023-04-15T08:43:57.464Z,19685.50
2023-04-15T08:46:24.437Z,23414.09
2023-04-15T08:48:51.010Z,23303.38
2023-04-15T08:51:18.590Z,23999.97
2023-04-15T08:53:47.455Z,22003.13
2023-04-15T08:56:15.724Z,22003.13
2023-04-15T08:58:44.794Z,24493.28
2023-04-15T09:01:14.455Z,22260.72
2023-04-15T09:03:41.973Z,21745.56
2023-04-15T09:06:08.553Z,21745.56
2023-04-15T09:08:35.836Z,22848.44
2023-04-15T09:11:08.383Z,23995.94
2023-04-15T09:13:50.703Z,26491.41
2023-04-15T09:16:19.586Z,26096.53
2023-04-15T09:18:46.342Z,27172.44
2023-04-15T09:21:23.494Z,28428.03
2023-04-15T09:24:00.624Z,28730.41
2023-04-15T09:26:40.086Z,28746.53
2023-04-15T09:29:09.257Z,28794.91
2023-04-15T09:31:39.776Z,28341.34
2023-04-15T09:34:07.537Z,29004.56
2023-04-15T09:36:56.888Z,29780.81
2023-04-15T09:39:23.469Z,29712.28
2023-04-15T09:42:07.620Z,30089.34
2023-04-15T09:44:34.142Z,30051.03
2023-04-15T09:47:00.847Z,29550.97
2023-04-15T09:49:28.231Z,29835.28
2023-04-15T09:52:06.286Z,29381.59
2023-04-15T09:54:35.005Z,29067.06
2023-04-15T09:57:10.317Z,29048.94
2023-04-15T09:59:37.266Z,29351.34
2023-04-15T10:02:09.988Z,28678.00
2023-04-15T10:04:41.500Z,28657.84
2023-04-15T10:07:13.033Z,29012.63
2023-04-15T10:09:39.789Z,29242.47
2023-04-15T10:12:06.432Z,28680.00
2023-04-15T10:14:35.013Z,28081.34
2023-04-15T10:17:03.228Z,27982.59
2023-04-15T10:19:33.267Z,27384.03
2023-04-15T10:22:00.105Z,26199.28
2023-04-15T10:24:27.899Z,27504.94
2023-04-15T10:26:55.528Z,28964.25
2023-04-15T10:29:29.657Z,29387.63
2023-04-15T10:31:56.953Z,29518.69
2023-04-15T10:34:24.784Z,29823.16
2023-04-15T10:36:52.024Z,29472.31
2023-04-15T10:39:43.270Z,29788.88
2023-04-15T10:42:11.248Z,29367.47
2023-04-15T10:44:38.938Z,29194.09
2023-04-15T10:47:12.524Z,29169.91
2023-04-15T10:49:59.096Z,29311.03
2023-04-15T10:52:27.681Z,29246.50
2023-04-15T10:55:15.706Z,29520.72
2023-04-15T10:57:43.289Z,29536.84
2023-04-15T11:00:20.176Z,29746.53
2023-04-15T11:02:58.753Z,29992.56
2023-04-15T11:05:52.238Z,30117.59
2023-04-15T11:08:19.940Z,30202.28
2023-04-15T11:10:47.315Z,30065.16
2023-04-15T11:13:21.974Z,29827.19
2023-04-15T11:15:50.315Z,30002.63
2023-04-15T11:18:19.580Z,29996.59
2023-04-15T11:21:03.410Z,30032.88
2023-04-15T11:23:40.686Z,29786.88
2023-04-15T11:26:12.357Z,29686.06
2023-04-15T11:28:46.334Z,29657.81
2023-04-15T11:31:18.077Z,30095.41
2023-04-15T11:33:46.132Z,30077.25
2023-04-15T11:36:12.701Z,29851.41
2023-04-15T11:38:44.857Z,29601.38
2023-04-15T11:41:11.538Z,29173.94
2023-04-15T11:43:38.007Z,29520.72
2023-04-15T11:46:04.757Z,29242.47
2023-04-15T11:48:34.249Z,29649.75
2023-04-15T11:51:06.009Z,29359.41
2023-04-15T11:53:44.090Z,29734.44
2023-04-15T11:56:21.120Z,29833.25
2023-04-15T11:58:50.705Z,30085.31
2023-04-15T12:01:17.741Z,30105.47
2023-04-15T12:03:49.243Z,30307.16
2023-04-15T12:06:20.748Z,30291.00
2023-04-15T12:08:59.231Z,30319.25
2023-04-15T12:11:46.065Z,30412.03
2023-04-15T12:14:26.865Z,30496.72
2023-04-15T12:17:02.784Z,30357.56
2023-04-15T12:19:30.450Z,30414.03
2023-04-15T12:22:03.347Z,30480.59
2023-04-15T12:24:36.453Z,30541.09
2023-04-15T12:27:13.935Z,30460.41
2023-04-15T12:29:43.126Z,30589.50
2023-04-15T12:32:11.773Z,30535.03
2023-04-15T12:34:39.359Z,30658.06
2023-04-15T12:37:09.451Z,30674.22
2023-04-15T12:39:37.575Z,30831.53
2023-04-15T12:42:05.378Z,30641.94
2023-04-15T12:44:33.184Z,30746.81
2023-04-15T12:47:00.475Z,30545.13
2023-04-15T12:49:27.205Z,30488.66
2023-04-15T12:51:55.837Z,30512.84
2023-04-15T12:54:31.749Z,30081.28
2023-04-15T12:56:59.167Z,30276.91
2023-04-15T12:59:25.637Z,30387.81
2023-04-15T13:01:53.536Z,30420.09
2023-04-15T13:04:21.236Z,30563.28
2023-04-15T13:06:47.826Z,30742.78
2023-04-15T13:09:14.315Z,30766.97
2023-04-15T13:11:40.957Z,30730.69
2023-04-15T13:14:08.995Z,30674.22
2023-04-15T13:16:36.024Z,30881.94
2023-04-15T13:19:08.767Z,30871.88
2023-04-15T13:21:36.447Z,30633.88
2023-04-15T13:24:04.055Z,30754.88
2023-04-15T13:26:31.665Z,30750.84
2023-04-15T13:28:58.193Z,30960.63
2023-04-15T13:31:24.698Z,30742.78
2023-04-15T13:33:57.279Z,30730.69
2023-04-15T13:36:24.088Z,30722.63
2023-04-15T13:38:51.682Z,30575.38
2023-04-15T13:41:18.148Z,30341.44
2023-04-15T13:43:44.900Z,30514.88
2023-04-15T13:46:11.609Z,30424.13
2023-04-15T13:48:38.077Z,30081.28
2023-04-15T13:51:04.770Z,29645.72
2023-04-15T13:53:37.851Z,28778.78
2023-04-15T13:56:12.305Z,28843.28
2023-04-15T13:58:41.438Z,28538.91
2023-04-15T14:01:08.160Z,28440.13
2023-04-15T14:03:37.108Z,28424.00
2023-04-15T14:06:08.304Z,27903.97
2023-04-15T14:08:34.772Z,28351.44
2023-04-15T14:11:02.273Z,28238.56
2023-04-15T14:13:30.600Z,26793.63
2023-04-15T14:15:57.226Z,27734.69
2023-04-15T14:18:25.247Z,28212.34
2023-04-15T14:20:51.871Z,28762.66
2023-04-15T14:23:18.454Z,29121.50
2023-04-15T14:25:48.134Z,28349.41
2023-04-15T14:28:15.313Z,28282.91
2023-04-15T14:30:41.848Z,29307.00
2023-04-15T14:33:17.539Z,29801.00
2023-04-15T14:35:44.567Z,29956.25
2023-04-15T14:38:11.523Z,29851.41
2023-04-15T14:40:38.266Z,29327.16
2023-04-15T14:43:04.825Z,29343.28
2023-04-15T14:45:31.346Z,28726.38
2023-04-15T14:47:59.474Z,27930.19
2023-04-15T14:50:27.036Z,27291.31
2023-04-15T14:52:53.472Z,26652.56
2023-04-15T14:55:20.501Z,26445.06
2023-04-15T14:57:47.159Z,27380.00
2023-04-15T15:00:19.489Z,26118.69
2023-04-15T15:02:47.511Z,25607.03
2023-04-15T15:05:14.179Z,24217.41
2023-04-15T15:07:40.932Z,23291.28
2023-04-15T15:10:08.023Z,22834.34
2023-04-15T15:12:34.773Z,20457.91
2023-04-15T15:15:05.005Z,18141.22
2023-04-15T15:17:38.221Z,16340.28
2023-04-15T15:20:05.143Z,15825.88
2023-04-15T15:22:46.828Z,15311.56
2023-04-15T15:25:14.569Z,14540.19
2023-04-15T15:27:42.324Z,14026.03
2023-04-15T15:30:09.776Z,13254.94
2023-04-15T15:32:36.196Z,12483.97
2023-04-15T15:35:02.629Z,11713.16
2023-04-15T15:37:30.906Z,10428.84
2023-04-15T15:39:57.402Z,10172.03
2023-04-15T15:42:23.879Z,9401.69
2023-04-15T15:44:52.707Z,8631.50
2023-04-15T15:47:19.761Z,7861.47
2023-04-15T15:49:46.276Z,7604.81
2023-04-15T15:52:15.974Z,6321.84
2023-04-15T15:54:42.943Z,6065.31
2023-04-15T15:57:16.526Z,5295.78
2023-04-15T15:59:43.789Z,4782.84
2023-04-15T16:02:11.553Z,4782.84
2023-04-15T16:04:39.063Z,4526.41
2023-04-15T16:07:05.539Z,4269.97
2023-04-15T16:09:32.269Z,4269.97
2023-04-15T16:11:59.024Z,3500.81
2023-04-15T16:14:26.459Z,2731.81
2023-04-15T16:16:53.254Z,2219.22
2023-04-15T16:19:21.509Z,1194.22
2023-04-15T16:21:48.672Z,1194.22
2023-04-15T16:24:16.266Z,425.69
2023-04-15T16:26:42.826Z,425.69
2023-04-15T16:29:09.277Z,-342.72
2023-04-15T16:31:37.349Z,-598.81
2023-04-15T16:34:04.208Z,169.53
2023-04-15T16:36:31.683Z,-342.72
2023-04-15T16:39:00.473Z,-342.72
2023-04-15T16:41:28.215Z,-342.72
2023-04-15T16:43:56.871Z,-1367.03
2023-04-15T16:46:25.528Z,-1110.97
2023-04-15T16:48:55.206Z,-342.72
2023-04-15T16:51:21.747Z,-598.81
2023-04-15T16:54:00.468Z,-598.81
2023-04-15T16:56:27.143Z,-854.91
2023-04-15T16:58:53.673Z,-598.81
2023-04-15T17:01:21.836Z,-598.81
2023-04-15T17:03:48.503Z,-342.72
2023-04-15T17:06:16.356Z,-598.81
2023-04-15T17:08:44.162Z,-1110.97
2023-04-15T17:11:11.366Z,-854.91
2023-04-15T17:13:38.685Z,-1110.97
2023-04-15T17:16:05.484Z,-1367.03
2023-04-15T17:18:32.047Z,-1110.97
2023-04-15T17:20:58.669Z,-1367.03
2023-04-15T17:23:27.204Z,-1367.03
2023-04-15T17:25:54.741Z,-1367.03
2023-04-15T17:28:21.498Z,-1367.03
2023-04-15T17:30:48.255Z,-1367.03
2023-04-15T17:33:56.410Z,-854.91
2023-04-15T17:36:03.063Z,-854.91
2023-04-15T17:38:30.729Z,-1110.97
2023-04-15T17:40:57.213Z,-1110.97
2023-04-15T17:43:29.904Z,-1367.03
2023-04-15T17:45:58.173Z,-1623.06
2023-04-15T17:48:27.268Z,-1623.06
2023-04-15T17:50:57.001Z,-1623.06
2023-04-15T17:53:24.422Z,-1367.03
2023-04-15T17:55:53.168Z,-2135.06
2023-04-15T17:58:20.318Z,-1879.06
2023-04-15T18:00:47.320Z,-1879.06
2023-04-15T18:03:14.656Z,-2135.06
2023-04-15T18:05:42.622Z,-2135.06
2023-04-15T18:08:10.550Z,-2391.03
2023-04-15T18:10:39.545Z,-2391.03
2023-04-15T18:13:06.409Z,-2647.00
2023-04-15T18:15:33.699Z,-2391.03
2023-04-15T18:18:00.581Z,-2391.03
2023-04-15T18:20:27.849Z,-2391.03
2023-04-15T18:22:54.368Z,-2902.97
2023-04-15T18:25:20.814Z,-3158.88
2023-04-15T18:27:47.330Z,-3158.88
2023-04-15T18:30:14.249Z,-3414.81
2023-04-15T18:32:41.381Z,-3670.69
2023-04-15T18:35:10.304Z,-3670.69
2023-04-15T18:37:37.841Z,-3926.56
2023-04-15T18:40:05.236Z,-4438.28
2023-04-15T18:42:33.238Z,-4438.28
2023-04-15T18:45:02.534Z,-4949.91
2023-04-15T18:47:29.111Z,-5461.50
2023-04-15T18:49:55.816Z,-5973.00
2023-04-15T18:52:24.347Z,-5973.00
2023-04-15T18:54:51.231Z,-6228.72
2023-04-15T18:57:24.493Z,-6484.41
2023-04-15T19:00:03.593Z,-6484.41
2023-04-15T19:02:32.237Z,-6228.72
2023-04-15T19:05:05.178Z,-5973.00
2023-04-15T19:07:31.917Z,-5717.25
2023-04-15T19:09:59.531Z,-5717.25
2023-04-15T19:12:26.043Z,-5717.25
2023-04-15T19:14:52.596Z,-5461.50
2023-04-15T19:17:19.104Z,-5461.50
2023-04-15T19:19:45.513Z,-5717.25
2023-04-15T19:22:12.355Z,-5461.50
2023-04-15T19:24:39.991Z,-5717.25
2023-04-15T19:27:06.588Z,-5717.25
2023-04-15T19:29:33.574Z,-5717.25
2023-04-15T19:32:01.289Z,-5973.00
2023-04-15T19:34:27.866Z,-6228.72
2023-04-15T19:36:54.365Z,-5973.00
2023-04-15T19:39:21.198Z,-5973.00
2023-04-15T19:41:48.150Z,-5973.00
2023-04-15T19:44:15.919Z,-5717.25
2023-04-15T19:46:44.893Z,-5717.25
2023-04-15T19:49:11.667Z,-5717.25
2023-04-15T19:51:38.275Z,-5973.00
2023-04-15T19:54:04.866Z,-5973.00
2023-04-15T19:56:33.661Z,-5973.00
2023-04-15T19:59:01.931Z,-5973.00
2023-04-15T20:01:28.902Z,-5973.00
2023-04-15T20:03:56.029Z,-5973.00
2023-04-15T20:06:22.826Z,-6228.72
2023-04-15T20:08:49.514Z,-6228.72
2023-04-15T20:11:17.055Z,-6228.72
2023-04-15T20:13:43.550Z,-5973.00
2023-04-15T20:16:11.790Z,-5973.00
2023-04-15T20:18:38.325Z,-6228.72
2023-04-15T20:21:04.974Z,-6228.72
2023-04-15T20:23:31.581Z,-5973.00
2023-04-15T20:25:58.010Z,-6228.72
2023-04-15T20:28:27.533Z,-6228.72
2023-04-15T20:30:54.001Z,-6228.72
2023-04-15T20:33:22.209Z,-6484.41
2023-04-15T20:35:48.818Z,-6228.72
2023-04-15T20:38:16.345Z,-6740.13
2023-04-15T20:40:43.135Z,-6740.13
2023-04-15T20:43:09.689Z,-6740.13
2023-04-15T20:45:36.565Z,-6484.41
2023-04-15T20:48:03.288Z,-6484.41
2023-04-15T20:50:29.911Z,-6484.41
2023-04-15T20:52:56.448Z,-6484.41
2023-04-15T20:55:23.072Z,-6484.41
2023-04-15T20:57:49.683Z,-6484.41
2023-04-15T21:00:16.234Z,-6484.41
2023-04-15T21:02:42.898Z,-6484.41
2023-04-15T21:05:09.668Z,-6740.13
2023-04-15T21:07:36.286Z,-6740.13
2023-04-15T21:10:02.900Z,-6740.13
2023-04-15T21:12:29.452Z,-6740.13
2023-04-15T21:14:55.958Z,-6484.41
2023-04-15T21:17:22.739Z,-6740.13
2023-04-15T21:19:49.401Z,-6740.13
2023-04-15T21:22:15.925Z,-6995.78
2023-04-15T21:24:48.800Z,-6995.78
2023-04-15T21:27:15.890Z,-7251.44
2023-04-15T21:29:42.452Z,-7251.44
2023-04-15T21:32:09.156Z,-7251.44
2023-04-15T21:34:35.755Z,-7251.44
2023-04-15T21:37:02.445Z,-7251.44
2023-04-15T21:39:29.193Z,-7251.44
2023-04-15T21:41:56.770Z,-7251.44
2023-04-15T21:44:23.962Z,-7251.44
2023-04-15T21:46:51.166Z,-7507.09
2023-04-15T21:49:20.362Z,-7507.09
2023-04-15T21:51:52.258Z,-7507.09
2023-04-15T21:54:18.919Z,-7251.44
2023-04-15T21:56:46.089Z,-6995.78
2023-04-15T21:59:13.881Z,-6995.78
2023-04-15T22:01:40.375Z,-6995.78
2023-04-15T22:04:07.644Z,-7251.44
2023-04-15T22:06:34.269Z,-7251.44
2023-04-15T22:09:00.955Z,-7507.09
2023-04-15T22:11:28.623Z,-7251.44
2023-04-15T22:13:58.567Z,-6995.78
2023-04-15T22:16:27.100Z,-6740.13
2023-04-15T22:18:54.424Z,-6484.41
2023-04-15T22:21:21.223Z,-6484.41
2023-04-15T22:23:49.356Z,-6740.13
2023-04-15T22:26:16.037Z,-6740.13
2023-04-15T22:28:42.800Z,-7251.44
2023-04-15T22:31:09.897Z,-7251.44
2023-04-15T22:33:38.895Z,-7507.09
2023-04-15T22:36:06.251Z,-8018.31
2023-04-15T22:38:33.028Z,-8273.91
2023-04-15T22:40:59.532Z,-8273.91
2023-04-15T22:43:27.621Z,-8529.47
2023-04-15T22:45:55.493Z,-8785.03
2023-04-15T22:48:22.926Z,-9040.56
2023-04-15T22:50:49.481Z,-9296.09
2023-04-15T22:53:17.383Z,-9551.59
2023-04-15T22:55:48.096Z,-9807.06
2023-04-15T22:58:15.841Z,-9807.06
2023-04-15T23:00:42.376Z,-9807.06
2023-04-15T23:03:09.099Z,-10062.56
2023-04-15T23:05:36.076Z,-10062.56
2023-04-15T23:08:02.728Z,-10318.00
2023-04-15T23:10:29.662Z,-10318.00
2023-04-15T23:12:56.167Z,-10318.00
2023-04-15T23:15:22.767Z,-10573.44
2023-04-15T23:17:50.480Z,-10573.44
2023-04-15T23:20:17.055Z,-10573.44
2023-04-15T23:22:43.610Z,-10828.84
2023-04-15T23:25:10.168Z,-10573.44
2023-04-15T23:27:36.818Z,-10573.44
2023-04-15T23:30:03.682Z,-10573.44
2023-04-15T23:32:30.313Z,-10573.44
2023-04-15T23:34:58.324Z,-10573.44
2023-04-15T23:37:24.836Z,-10573.44
2023-04-15T23:39:51.262Z,-10573.44
2023-04-15T23:42:17.796Z,-10573.44
2023-04-15T23:44:44.893Z,-10828.84
2023-04-15T23:47:11.412Z,-10573.44
2023-04-15T23:49:40.007Z,-10828.84
2023-04-15T23:52:07.130Z,-10828.84
2023-04-15T23:54:33.959Z,-11084.25
2023-04-15T23:57:00.522Z,-10828.84
2023-04-15T23:59:26.989Z,-10828.84
